createdAt,value
2022-12-29T00:00:15.874Z,90.64
2022-12-29T00:01:15.771Z,90.48
2022-12-29T00:02:15.945Z,90.34
2022-12-29T00:03:15.858Z,90.44
2022-12-29T00:04:15.922Z,90.48
2022-12-29T00:05:15.740Z,90.58
2022-12-29T00:06:15.742Z,90.44
2022-12-29T00:07:15.714Z,90.44
2022-12-29T00:08:15.694Z,90.34
2022-12-29T00:09:15.696Z,89.92
2022-12-29T00:10:15.707Z,90.44
2022-12-29T00:11:15.691Z,90.13
2022-12-29T00:12:15.712Z,90.23
2022-12-29T00:13:15.694Z,90.54
2022-12-29T00:14:47.616Z,90.64
2022-12-29T00:15:15.674Z,90.95
2022-12-29T00:16:15.701Z,90.84
2022-12-29T00:17:15.676Z,90.75
2022-12-29T00:18:15.637Z,90.44
2022-12-29T00:19:15.629Z,90.54
2022-12-29T00:20:15.609Z,90.95
2022-12-29T00:21:15.608Z,90.54
2022-12-29T00:22:15.590Z,90.34
2022-12-29T00:23:15.635Z,90.54
2022-12-29T00:24:15.620Z,90.75
2022-12-29T00:25:15.639Z,90.54
2022-12-29T00:26:15.582Z,90.64
2022-12-29T00:27:15.593Z,91.05
2022-12-29T00:28:15.566Z,90.54
2022-12-29T00:29:15.555Z,90.64
2022-12-29T00:30:15.557Z,91.05
2022-12-29T00:31:15.561Z,90.64
2022-12-29T00:32:15.519Z,90.95
2022-12-29T00:33:15.537Z,90.75
2022-12-29T00:34:15.542Z,90.84
2022-12-29T00:35:15.587Z,90.64
2022-12-29T00:36:15.524Z,90.84
2022-12-29T00:37:15.497Z,90.54
2022-12-29T00:38:15.482Z,90.39
2022-12-29T00:39:15.533Z,90.39
2022-12-29T00:40:15.484Z,90.39
2022-12-29T00:41:15.470Z,89.78
2022-12-29T00:42:15.449Z,89.78
2022-12-29T00:43:15.445Z,89.98
2022-12-29T00:44:15.543Z,89.74
2022-12-29T00:45:15.497Z,89.78
2022-12-29T00:46:19.696Z,89.89
2022-12-29T00:47:16.463Z,89.78
2022-12-29T00:48:15.450Z,89.98
2022-12-29T00:49:15.437Z,89.53
2022-12-29T00:50:15.479Z,89.98
2022-12-29T00:51:15.388Z,89.98
2022-12-29T00:52:15.527Z,89.23
2022-12-29T00:53:15.363Z,89.53
2022-12-29T00:54:15.372Z,88.82
2022-12-29T00:55:15.349Z,88.62
2022-12-29T00:56:15.362Z,88.41
2022-12-29T00:57:15.393Z,88.62
2022-12-29T00:58:15.341Z,88.82
2022-12-29T00:59:15.323Z,88.62
2022-12-29T01:00:15.321Z,88.82
2022-12-29T01:01:15.387Z,89.09
2022-12-29T01:02:15.497Z,89.23
2022-12-29T01:03:15.380Z,89.03
2022-12-29T01:04:15.277Z,88.71
2022-12-29T01:05:15.308Z,89.29
2022-12-29T01:06:15.260Z,88.51
2022-12-29T01:07:15.287Z,89.18
2022-12-29T01:08:15.290Z,88.82
2022-12-29T01:09:15.267Z,88.78
2022-12-29T01:10:15.412Z,88.26
2022-12-29T01:11:15.940Z,88.57
2022-12-29T01:12:15.217Z,88.68
2022-12-29T01:13:15.201Z,88.88
2022-12-29T01:14:15.358Z,89.18
2022-12-29T01:15:15.250Z,89.09
2022-12-29T01:16:15.257Z,89.84
2022-12-29T01:17:15.265Z,89.84
2022-12-29T01:18:15.171Z,90.00
2022-12-29T01:19:15.189Z,89.74
2022-12-29T01:20:15.172Z,89.74
2022-12-29T01:21:15.121Z,89.59
2022-12-29T01:22:16.162Z,88.98
2022-12-29T01:23:15.170Z,89.39
2022-12-29T01:24:15.133Z,89.09
2022-12-29T01:25:15.139Z,89.18
2022-12-29T01:26:15.165Z,90.11
2022-12-29T01:27:15.192Z,90.00
2022-12-29T01:28:15.096Z,88.98
2022-12-29T01:29:16.266Z,88.78
2022-12-29T01:30:15.100Z,89.18
2022-12-29T01:31:15.089Z,88.88
2022-12-29T01:32:15.077Z,89.18
2022-12-29T01:33:15.091Z,88.98
2022-12-29T01:34:15.081Z,88.88
2022-12-29T01:35:15.083Z,89.50
2022-12-29T01:36:15.062Z,89.90
2022-12-29T01:37:15.113Z,88.98
2022-12-29T01:38:15.015Z,89.39
2022-12-29T01:39:15.009Z,89.09
2022-12-29T01:40:15.024Z,88.78
2022-12-29T01:41:15.009Z,88.12
2022-12-29T01:42:14.999Z,88.53
2022-12-29T01:43:15.003Z,88.74
2022-12-29T01:44:14.994Z,88.98
2022-12-29T01:45:14.988Z,88.57
2022-12-29T01:46:14.990Z,88.94
2022-12-29T01:47:14.939Z,88.94
2022-12-29T01:48:14.947Z,88.94
2022-12-29T01:49:14.949Z,88.68
2022-12-29T01:50:14.952Z,88.88
2022-12-29T01:51:14.919Z,88.68
2022-12-29T01:52:14.924Z,88.57
2022-12-29T01:53:14.929Z,88.43
2022-12-29T01:54:15.013Z,88.53
2022-12-29T01:55:14.882Z,89.35
2022-12-29T01:56:14.884Z,89.86
2022-12-29T01:57:14.880Z,90.17
2022-12-29T01:58:14.853Z,90.62
2022-12-29T01:59:14.859Z,90.72
2022-12-29T02:00:14.875Z,91.44
2022-12-29T02:01:14.882Z,91.85
2022-12-29T02:02:14.926Z,91.89
2022-12-29T02:03:15.619Z,91.99
2022-12-29T02:04:14.900Z,92.19
2022-12-29T02:05:15.639Z,92.30
2022-12-29T02:06:14.837Z,92.50
2022-12-29T02:07:14.831Z,91.89
2022-12-29T02:08:14.785Z,91.99
2022-12-29T02:09:46.718Z,91.17
2022-12-29T02:10:14.797Z,91.69
2022-12-29T02:11:14.762Z,91.48
2022-12-29T02:12:14.781Z,91.95
2022-12-29T02:13:14.806Z,91.89
2022-12-29T02:14:14.785Z,91.89
2022-12-29T02:15:14.738Z,91.38
2022-12-29T02:16:14.827Z,91.07
2022-12-29T02:17:14.750Z,91.07
2022-12-29T02:18:14.735Z,91.38
2022-12-29T02:19:14.709Z,91.17
2022-12-29T02:20:14.702Z,91.48
2022-12-29T02:21:14.706Z,91.54
2022-12-29T02:22:14.685Z,90.72
2022-12-29T02:23:14.694Z,90.62
2022-12-29T02:24:14.666Z,90.41
2022-12-29T02:25:14.677Z,90.41
2022-12-29T02:26:14.648Z,90.41
2022-12-29T02:27:14.678Z,90.82
2022-12-29T02:28:14.647Z,90.82
2022-12-29T02:29:14.629Z,90.52
2022-12-29T02:30:14.631Z,90.82
2022-12-29T02:31:14.663Z,89.90
2022-12-29T02:32:14.655Z,90.72
2022-12-29T02:33:14.607Z,90.41
2022-12-29T02:34:14.595Z,90.52
2022-12-29T02:35:14.582Z,90.62
2022-12-29T02:36:14.575Z,91.13
2022-12-29T02:37:14.584Z,91.03
2022-12-29T02:38:14.589Z,90.82
2022-12-29T02:39:14.554Z,91.44
2022-12-29T02:40:14.564Z,90.82
2022-12-29T02:41:14.577Z,90.72
2022-12-29T02:42:14.552Z,90.41
2022-12-29T02:43:15.408Z,90.52
2022-12-29T02:44:14.538Z,91.03
2022-12-29T02:45:14.511Z,91.23
2022-12-29T02:46:14.535Z,91.03
2022-12-29T02:47:14.576Z,91.33
2022-12-29T02:48:14.556Z,91.03
2022-12-29T02:49:14.493Z,91.95
2022-12-29T02:50:14.469Z,92.19
2022-12-29T02:51:14.466Z,92.05
2022-12-29T02:52:14.464Z,91.89
2022-12-29T02:53:14.443Z,91.69
2022-12-29T02:54:14.427Z,91.85
2022-12-29T02:55:14.452Z,91.13
2022-12-29T02:56:14.481Z,91.03
2022-12-29T02:57:14.437Z,91.13
2022-12-29T02:58:14.405Z,91.33
2022-12-29T02:59:14.403Z,91.03
2022-12-29T03:00:14.424Z,91.74
2022-12-29T03:01:14.479Z,91.85
2022-12-29T03:02:14.443Z,91.74
2022-12-29T03:03:14.476Z,91.13
2022-12-29T03:04:14.371Z,91.85
2022-12-29T03:05:14.389Z,91.13
2022-12-29T03:06:14.366Z,91.23
2022-12-29T03:07:14.332Z,91.33
2022-12-29T03:08:14.320Z,91.33
2022-12-29T03:09:18.829Z,91.60
2022-12-29T03:10:15.336Z,91.03
2022-12-29T03:11:14.317Z,91.03
2022-12-29T03:12:14.305Z,91.85
2022-12-29T03:13:14.279Z,91.85
2022-12-29T03:14:14.303Z,91.54
2022-12-29T03:15:14.307Z,91.74
2022-12-29T03:16:14.343Z,91.33
2022-12-29T03:17:14.445Z,91.33
2022-12-29T03:18:14.242Z,91.33
2022-12-29T03:19:14.347Z,91.23
2022-12-29T03:20:14.251Z,91.85
2022-12-29T03:21:14.244Z,91.33
2022-12-29T03:22:14.250Z,91.13
2022-12-29T03:23:14.234Z,91.39
2022-12-29T03:24:14.261Z,90.37
2022-12-29T03:25:14.206Z,90.78
2022-12-29T03:26:14.214Z,90.68
2022-12-29T03:27:14.217Z,90.68
2022-12-29T03:28:14.190Z,90.37
2022-12-29T03:29:14.182Z,90.58
2022-12-29T03:30:14.194Z,90.17
2022-12-29T03:31:14.221Z,90.37
2022-12-29T03:32:14.194Z,90.17
2022-12-29T03:33:14.223Z,90.47
2022-12-29T03:34:14.229Z,90.17
2022-12-29T03:35:14.146Z,90.27
2022-12-29T03:36:14.119Z,90.47
2022-12-29T03:37:14.132Z,90.37
2022-12-29T03:38:14.107Z,90.06
2022-12-29T03:39:14.094Z,89.72
2022-12-29T03:40:14.167Z,89.86
2022-12-29T03:41:14.086Z,90.17
2022-12-29T03:42:14.068Z,90.78
2022-12-29T03:43:14.205Z,90.78
2022-12-29T03:44:14.064Z,90.37
2022-12-29T03:45:14.063Z,90.47
2022-12-29T03:46:14.112Z,90.47
2022-12-29T03:47:14.031Z,90.47
2022-12-29T04:02:44.294Z,91.80
2022-12-29T04:03:44.096Z,92.11
2022-12-29T04:04:44.062Z,92.11
2022-12-29T04:05:44.066Z,92.05
2022-12-29T04:06:44.016Z,92.21
2022-12-29T04:07:45.141Z,91.50
2022-12-29T04:08:45.172Z,91.80
2022-12-29T04:09:46.172Z,91.60
2022-12-29T04:10:45.181Z,91.91
2022-12-29T04:11:45.145Z,92.15
2022-12-29T04:12:45.116Z,91.60
2022-12-29T04:13:45.119Z,91.60
2022-12-29T04:14:45.146Z,91.70
2022-12-29T04:15:45.150Z,91.70
2022-12-29T04:16:45.098Z,91.50
2022-12-29T04:17:45.104Z,92.11
2022-12-29T04:18:45.055Z,92.11
2022-12-29T04:19:45.062Z,92.01
2022-12-29T04:20:45.068Z,92.05
2022-12-29T04:21:45.048Z,92.05
2022-12-29T04:22:45.055Z,92.15
2022-12-29T04:23:45.028Z,92.15
2022-12-29T04:24:45.021Z,92.21
2022-12-29T04:25:45.029Z,92.01
2022-12-29T04:26:45.027Z,92.01
2022-12-29T04:27:45.010Z,92.21
2022-12-29T04:28:44.989Z,92.11
2022-12-29T04:29:45.002Z,92.21
2022-12-29T04:30:44.980Z,91.80
2022-12-29T04:31:45.121Z,92.21
2022-12-29T04:32:44.966Z,91.70
2022-12-29T04:33:44.976Z,91.19
2022-12-29T04:34:44.952Z,91.25
2022-12-29T04:35:44.926Z,91.19
2022-12-29T04:36:44.953Z,91.29
2022-12-29T04:37:44.921Z,91.09
2022-12-29T04:38:44.931Z,90.88
2022-12-29T04:39:44.910Z,90.94
2022-12-29T04:40:44.909Z,90.53
2022-12-29T04:41:44.889Z,90.64
2022-12-29T04:42:44.904Z,91.35
2022-12-29T04:43:44.896Z,91.50
2022-12-29T04:44:45.333Z,91.25
2022-12-29T04:45:45.887Z,91.15
2022-12-29T04:46:44.889Z,91.70
2022-12-29T04:47:44.892Z,91.70
2022-12-29T04:48:44.852Z,92.11
2022-12-29T04:49:44.841Z,91.91
2022-12-29T04:50:44.827Z,92.11
2022-12-29T04:51:44.842Z,91.70
2022-12-29T04:52:44.823Z,91.09
2022-12-29T04:53:44.847Z,91.50
2022-12-29T04:54:44.822Z,91.15
2022-12-29T04:55:44.774Z,91.29
2022-12-29T04:56:44.819Z,91.09
2022-12-29T04:57:44.773Z,91.39
2022-12-29T04:58:44.759Z,91.19
2022-12-29T04:59:44.784Z,91.15
2022-12-29T05:00:44.733Z,91.29
2022-12-29T05:01:44.870Z,91.15
2022-12-29T05:02:44.867Z,91.50
2022-12-29T05:03:44.794Z,91.60
2022-12-29T05:04:44.720Z,91.19
2022-12-29T05:05:44.724Z,91.39
2022-12-29T05:06:44.713Z,91.09
2022-12-29T05:07:44.745Z,90.99
2022-12-29T05:08:44.703Z,91.39
2022-12-29T05:09:44.672Z,91.25
2022-12-29T05:10:44.696Z,90.99
2022-12-29T05:11:44.661Z,91.09
2022-12-29T05:12:44.640Z,91.80
2022-12-29T05:13:44.646Z,91.80
2022-12-29T05:14:44.628Z,91.70
2022-12-29T05:15:44.689Z,92.11
2022-12-29T05:16:44.622Z,91.60
2022-12-29T05:17:44.642Z,91.70
2022-12-29T05:18:44.597Z,91.39
2022-12-29T05:19:44.600Z,91.60
2022-12-29T05:20:44.621Z,91.60
2022-12-29T05:21:44.578Z,92.11
2022-12-29T05:22:44.648Z,92.11
2022-12-29T05:23:44.575Z,92.11
2022-12-29T05:24:44.553Z,90.99
2022-12-29T05:25:44.537Z,90.33
2022-12-29T05:26:44.546Z,90.99
2022-12-29T05:27:44.556Z,90.53
2022-12-29T05:28:44.560Z,90.74
2022-12-29T05:29:44.543Z,90.33
2022-12-29T05:30:44.549Z,90.84
2022-12-29T05:31:44.580Z,90.33
2022-12-29T05:32:44.517Z,90.68
2022-12-29T05:33:44.475Z,90.27
2022-12-29T05:34:44.474Z,90.53
2022-12-29T05:35:44.512Z,90.64
2022-12-29T05:36:44.494Z,90.68
2022-12-29T05:37:44.478Z,90.47
2022-12-29T05:38:44.434Z,90.23
2022-12-29T05:39:44.432Z,90.12
2022-12-29T05:40:44.452Z,90.12
2022-12-29T05:41:44.429Z,89.61
2022-12-29T05:42:44.460Z,90.23
2022-12-29T05:43:44.461Z,90.27
2022-12-29T05:44:44.469Z,89.61
2022-12-29T05:45:44.442Z,89.61
2022-12-29T05:46:44.437Z,89.51
2022-12-29T05:47:44.375Z,89.82
2022-12-29T05:48:44.411Z,90.23
2022-12-29T05:49:44.384Z,90.23
2022-12-29T05:50:44.351Z,90.23
2022-12-29T05:51:44.336Z,90.23
2022-12-29T05:52:44.343Z,90.27
2022-12-29T05:53:44.357Z,90.02
2022-12-29T05:54:44.319Z,89.61
2022-12-29T05:55:48.496Z,89.82
2022-12-29T05:56:45.304Z,89.72
2022-12-29T05:57:44.300Z,89.82
2022-12-29T05:58:44.300Z,89.31
2022-12-29T05:59:44.301Z,89.61
2022-12-29T06:00:44.276Z,89.61
2022-12-29T06:01:44.338Z,90.12
2022-12-29T06:02:44.497Z,90.23
2022-12-29T06:03:48.159Z,90.12
2022-12-29T06:04:45.249Z,90.12
2022-12-29T06:05:44.232Z,90.47
2022-12-29T06:06:44.216Z,90.58
2022-12-29T06:07:44.223Z,90.53
2022-12-29T06:08:44.217Z,90.23
2022-12-29T06:09:44.187Z,90.58
2022-12-29T06:10:44.217Z,90.37
2022-12-29T06:11:44.181Z,89.86
2022-12-29T06:12:44.188Z,90.12
2022-12-29T06:13:44.154Z,90.23
2022-12-29T06:14:44.173Z,90.02
2022-12-29T06:15:44.160Z,90.06
2022-12-29T06:16:44.216Z,90.23
2022-12-29T06:17:44.128Z,89.86
2022-12-29T06:18:44.121Z,90.27
2022-12-29T06:19:44.113Z,90.37
2022-12-29T06:20:44.122Z,90.12
2022-12-29T06:21:44.091Z,90.27
2022-12-29T06:22:44.095Z,90.23
2022-12-29T06:23:44.082Z,89.97
2022-12-29T06:24:44.070Z,90.02
2022-12-29T06:25:44.103Z,90.68
2022-12-29T06:26:44.093Z,90.17
2022-12-29T06:27:44.054Z,90.23
2022-12-29T06:28:44.075Z,89.51
2022-12-29T06:29:44.044Z,89.41
2022-12-29T06:30:44.038Z,89.82
2022-12-29T06:31:44.134Z,89.20
2022-12-29T06:32:44.006Z,89.41
2022-12-29T06:33:48.250Z,89.51
2022-12-29T06:34:44.996Z,89.51
2022-12-29T06:35:43.991Z,89.72
2022-12-29T06:36:44.039Z,89.86
2022-12-29T06:37:44.038Z,89.20
2022-12-29T06:38:43.977Z,89.20
2022-12-29T06:39:43.957Z,88.70
2022-12-29T06:40:43.951Z,88.79
2022-12-29T06:41:43.951Z,88.70
2022-12-29T06:42:43.925Z,89.00
2022-12-29T06:43:43.923Z,88.79
2022-12-29T06:44:43.916Z,88.79
2022-12-29T06:45:43.928Z,88.90
2022-12-29T06:46:43.907Z,88.79
2022-12-29T06:47:43.896Z,88.90
2022-12-29T06:48:43.874Z,88.39
2022-12-29T06:49:43.903Z,88.39
2022-12-29T06:50:43.839Z,89.41
2022-12-29T06:51:43.888Z,89.20
2022-12-29T06:52:43.861Z,88.49
2022-12-29T06:53:43.846Z,89.31
2022-12-29T06:54:43.837Z,89.31
2022-12-29T06:55:43.850Z,88.79
2022-12-29T06:56:43.852Z,88.39
2022-12-29T06:57:43.827Z,88.08
2022-12-29T06:58:43.794Z,87.43
2022-12-29T06:59:43.793Z,87.32
2022-12-29T07:00:43.786Z,88.04
2022-12-29T07:01:43.908Z,87.32
2022-12-29T07:02:43.893Z,88.04
2022-12-29T07:03:43.765Z,88.14
2022-12-29T07:04:43.809Z,88.85
2022-12-29T07:05:43.758Z,88.29
2022-12-29T07:06:43.743Z,88.14
2022-12-29T07:07:44.306Z,88.04
2022-12-29T07:08:43.758Z,88.14
2022-12-29T07:09:43.719Z,88.29
2022-12-29T07:10:43.720Z,88.39
2022-12-29T07:11:43.704Z,88.35
2022-12-29T07:12:43.703Z,88.85
2022-12-29T07:13:43.704Z,88.08
2022-12-29T07:14:43.859Z,87.94
2022-12-29T07:15:43.726Z,87.84
2022-12-29T07:16:43.713Z,88.04
2022-12-29T07:17:43.655Z,88.24
2022-12-29T07:18:43.685Z,88.45
2022-12-29T07:19:43.706Z,88.08
2022-12-29T07:20:43.640Z,87.84
2022-12-29T07:21:46.325Z,88.04
2022-12-29T07:22:43.616Z,87.94
2022-12-29T07:23:43.627Z,88.14
2022-12-29T07:24:43.622Z,87.94
2022-12-29T07:25:43.599Z,87.84
2022-12-29T07:26:43.605Z,88.04
2022-12-29T07:27:43.576Z,87.94
2022-12-29T07:28:43.585Z,87.32
2022-12-29T07:29:43.585Z,87.63
2022-12-29T07:30:43.576Z,87.63
2022-12-29T07:31:43.562Z,87.94
2022-12-29T07:32:44.530Z,87.18
2022-12-29T07:33:43.558Z,87.49
2022-12-29T07:34:43.591Z,87.63
2022-12-29T07:35:43.530Z,87.73
2022-12-29T07:36:43.530Z,87.43
2022-12-29T07:37:43.509Z,87.43
2022-12-29T07:38:43.556Z,87.53
2022-12-29T07:39:43.512Z,87.53
2022-12-29T07:40:43.493Z,87.02
2022-12-29T07:41:43.476Z,87.32
2022-12-29T07:42:43.483Z,87.43
2022-12-29T07:43:43.459Z,87.43
2022-12-29T07:44:43.452Z,87.23
2022-12-29T07:45:43.514Z,88.14
2022-12-29T07:46:54.968Z,87.63
2022-12-29T07:47:44.433Z,87.12
2022-12-29T07:48:43.421Z,87.32
2022-12-29T07:49:43.409Z,87.23
2022-12-29T07:50:43.456Z,87.23
2022-12-29T07:51:43.447Z,88.04
2022-12-29T07:52:43.394Z,88.14
2022-12-29T07:53:43.395Z,87.84
2022-12-29T07:54:43.379Z,88.14
2022-12-29T07:55:43.357Z,87.94
2022-12-29T07:56:43.419Z,88.24
2022-12-29T07:57:43.385Z,88.14
2022-12-29T07:58:43.346Z,88.14
2022-12-29T07:59:43.325Z,88.14
2022-12-29T08:00:43.322Z,88.35
2022-12-29T08:01:43.447Z,88.35
2022-12-29T08:02:43.424Z,88.55
2022-12-29T08:03:43.345Z,88.35
2022-12-29T08:04:43.291Z,88.24
2022-12-29T08:05:44.340Z,88.14
2022-12-29T08:06:43.279Z,87.84
2022-12-29T08:07:43.281Z,88.04
2022-12-29T08:08:43.293Z,88.10
2022-12-29T08:11:01.841Z,88.55
2022-12-29T08:12:01.865Z,88.55
2022-12-29T08:13:01.849Z,88.14
2022-12-29T08:14:02.978Z,87.94
2022-12-29T08:15:02.944Z,88.10
2022-12-29T08:16:04.622Z,88.14
2022-12-29T08:17:02.988Z,87.49
2022-12-29T08:18:02.930Z,87.18
2022-12-29T08:19:02.939Z,87.29
2022-12-29T08:20:02.950Z,87.79
2022-12-29T08:21:02.909Z,87.29
2022-12-29T08:22:02.921Z,87.38
2022-12-29T08:23:02.940Z,87.08
2022-12-29T08:24:02.896Z,87.90
2022-12-29T08:25:02.881Z,87.49
2022-12-29T08:26:02.868Z,87.29
2022-12-29T08:27:11.838Z,87.38
2022-12-29T08:28:04.859Z,87.08
2022-12-29T08:29:02.844Z,86.63
2022-12-29T08:30:03.023Z,86.36
2022-12-29T08:31:02.852Z,86.63
2022-12-29T08:32:02.937Z,86.22
2022-12-29T08:33:02.819Z,86.43
2022-12-29T08:34:02.829Z,86.57
2022-12-29T08:35:02.847Z,86.73
2022-12-29T08:36:02.771Z,86.53
2022-12-29T08:37:02.817Z,86.33
2022-12-29T08:38:02.780Z,86.22
2022-12-29T08:39:02.781Z,85.71
2022-12-29T08:40:02.770Z,86.02
2022-12-29T08:41:02.738Z,86.63
2022-12-29T08:42:02.758Z,86.98
2022-12-29T08:43:02.721Z,87.14
2022-12-29T08:44:02.749Z,86.77
2022-12-29T08:45:02.801Z,86.36
2022-12-29T08:46:02.793Z,86.47
2022-12-29T08:47:02.747Z,86.63
2022-12-29T08:48:02.698Z,86.67
2022-12-29T08:49:03.470Z,86.67
2022-12-29T08:50:02.696Z,86.47
2022-12-29T08:51:02.708Z,87.59
2022-12-29T08:52:02.653Z,87.49
2022-12-29T08:53:02.661Z,87.18
2022-12-29T08:54:02.652Z,87.08
2022-12-29T08:55:02.620Z,86.26
2022-12-29T08:56:05.422Z,86.53
2022-12-29T08:57:03.669Z,86.26
2022-12-29T08:58:02.641Z,85.82
2022-12-29T08:59:02.608Z,85.30
2022-12-29T09:00:02.589Z,85.51
2022-12-29T09:01:02.635Z,85.71
2022-12-29T09:02:02.909Z,85.10
2022-12-29T09:03:02.780Z,85.61
2022-12-29T09:04:18.603Z,85.92
2022-12-29T09:05:04.577Z,86.12
2022-12-29T09:06:02.582Z,85.71
2022-12-29T09:07:02.531Z,86.22
2022-12-29T09:08:02.575Z,85.30
2022-12-29T09:09:02.522Z,85.10
2022-12-29T09:10:02.519Z,85.61
2022-12-29T09:11:02.522Z,85.92
2022-12-29T09:12:02.508Z,86.02
2022-12-29T09:13:02.497Z,86.53
2022-12-29T09:14:02.516Z,86.33
2022-12-29T09:15:02.471Z,86.12
2022-12-29T09:16:02.491Z,86.12
2022-12-29T09:17:02.466Z,86.47
2022-12-29T09:18:02.471Z,86.33
2022-12-29T09:19:02.449Z,87.04
2022-12-29T09:20:02.448Z,87.55
2022-12-29T09:21:02.451Z,86.98
2022-12-29T09:22:02.481Z,86.98
2022-12-29T09:23:02.437Z,88.10
2022-12-29T09:24:02.407Z,88.10
2022-12-29T09:25:02.384Z,88.00
2022-12-29T09:26:02.415Z,88.17
2022-12-29T09:27:02.419Z,87.08
2022-12-29T09:28:02.364Z,87.24
2022-12-29T09:29:02.355Z,87.70
2022-12-29T09:30:02.353Z,87.76
2022-12-29T09:31:02.464Z,88.00
2022-12-29T09:32:02.336Z,88.82
2022-12-29T09:33:02.347Z,89.73
2022-12-29T09:34:02.339Z,89.73
2022-12-29T09:35:02.325Z,90.19
2022-12-29T09:36:02.312Z,90.49
2022-12-29T09:37:02.302Z,91.20
2022-12-29T09:38:02.298Z,90.90
2022-12-29T09:39:02.312Z,91.31
2022-12-29T09:40:02.264Z,91.11
2022-12-29T09:41:02.308Z,90.80
2022-12-29T09:42:02.250Z,90.49
2022-12-29T09:43:02.250Z,90.39
2022-12-29T09:44:02.271Z,90.80
2022-12-29T09:45:02.231Z,90.39
2022-12-29T09:46:02.239Z,91.31
2022-12-29T09:47:02.293Z,91.82
2022-12-29T09:48:08.149Z,92.43
2022-12-29T09:49:04.234Z,92.27
2022-12-29T09:50:02.217Z,92.37
2022-12-29T09:51:02.222Z,92.13
2022-12-29T09:52:02.179Z,91.96
2022-12-29T09:53:02.233Z,91.31
2022-12-29T09:54:02.181Z,91.31
2022-12-29T09:55:06.328Z,91.00
2022-12-29T09:56:04.200Z,91.52
2022-12-29T09:57:02.164Z,91.05
2022-12-29T09:58:02.144Z,91.72
2022-12-29T09:59:02.148Z,91.05
2022-12-29T10:00:02.251Z,91.56
2022-12-29T10:01:02.171Z,91.46
2022-12-29T10:02:02.255Z,90.53
2022-12-29T10:03:02.275Z,90.74
2022-12-29T10:04:02.094Z,90.64
2022-12-29T10:05:02.154Z,90.29
2022-12-29T10:06:02.115Z,90.49
2022-12-29T10:07:29.053Z,90.19
2022-12-29T10:08:04.106Z,90.08
2022-12-29T10:09:02.065Z,90.49
2022-12-29T10:10:02.129Z,90.53
2022-12-29T10:11:02.080Z,90.90
2022-12-29T10:12:02.046Z,90.84
2022-12-29T10:13:02.025Z,91.86
2022-12-29T10:14:02.015Z,92.17
2022-12-29T10:15:02.031Z,92.17
2022-12-29T10:16:02.070Z,91.96
2022-12-29T10:17:02.028Z,92.78
2022-12-29T10:18:01.996Z,92.88
2022-12-29T10:19:02.028Z,92.99
2022-12-29T10:20:02.015Z,93.29
2022-12-29T10:21:01.952Z,93.09
2022-12-29T10:22:01.983Z,93.03
2022-12-29T10:23:01.957Z,93.19
2022-12-29T10:24:01.946Z,93.09
2022-12-29T10:25:01.931Z,93.29
2022-12-29T10:26:01.955Z,93.29
2022-12-29T10:27:02.947Z,93.29
2022-12-29T10:28:01.908Z,93.29
2022-12-29T10:29:01.897Z,93.44
2022-12-29T10:30:01.925Z,93.29
2022-12-29T10:31:08.330Z,93.19
2022-12-29T10:32:03.964Z,93.09
2022-12-29T10:33:01.895Z,93.70
2022-12-29T10:34:01.859Z,93.70
2022-12-29T10:35:01.868Z,94.11
2022-12-29T10:36:01.833Z,93.40
2022-12-29T10:37:01.877Z,93.74
2022-12-29T10:38:01.872Z,93.65
2022-12-29T10:39:01.818Z,93.29
2022-12-29T10:40:01.813Z,93.50
2022-12-29T10:41:01.836Z,93.44
2022-12-29T10:42:01.821Z,93.74
2022-12-29T10:43:01.828Z,93.29
2022-12-29T10:44:01.806Z,93.85
2022-12-29T10:45:01.798Z,93.40
2022-12-29T10:46:01.809Z,93.24
2022-12-29T10:47:01.769Z,92.93
2022-12-29T10:48:01.793Z,93.29
2022-12-29T10:49:01.797Z,92.11
2022-12-29T10:50:01.773Z,91.86
2022-12-29T10:51:02.401Z,92.07
2022-12-29T10:52:02.782Z,92.47
2022-12-29T10:53:01.758Z,92.17
2022-12-29T10:54:01.743Z,92.58
2022-12-29T10:55:01.719Z,92.27
2022-12-29T10:56:01.742Z,92.99
2022-12-29T10:57:01.714Z,92.27
2022-12-29T10:58:01.722Z,93.13
2022-12-29T10:59:01.654Z,93.09
2022-12-29T11:00:01.677Z,93.40
2022-12-29T11:01:01.715Z,93.09
2022-12-29T11:02:01.884Z,92.93
2022-12-29T11:03:01.757Z,93.13
2022-12-29T11:04:01.629Z,93.09
2022-12-29T11:05:01.628Z,92.99
2022-12-29T11:06:01.609Z,93.13
2022-12-29T11:07:01.619Z,93.29
2022-12-29T11:08:01.610Z,93.19
2022-12-29T11:09:01.637Z,93.19
2022-12-29T11:10:01.591Z,92.58
2022-12-29T11:11:01.587Z,93.09
2022-12-29T11:12:01.565Z,92.68
2022-12-29T11:13:01.605Z,92.88
2022-12-29T11:14:01.546Z,92.62
2022-12-29T11:15:02.432Z,93.09
2022-12-29T11:16:01.656Z,93.09
2022-12-29T11:17:01.532Z,92.99
2022-12-29T11:18:01.601Z,92.68
2022-12-29T11:19:01.608Z,93.09
2022-12-29T11:20:01.497Z,93.09
2022-12-29T11:21:01.525Z,93.09
2022-12-29T11:22:02.456Z,93.19
2022-12-29T11:23:01.515Z,92.99
2022-12-29T11:24:01.520Z,93.44
2022-12-29T11:25:01.498Z,93.19
2022-12-29T11:26:01.471Z,93.09
2022-12-29T11:27:01.456Z,92.88
2022-12-29T11:28:02.492Z,92.37
2022-12-29T11:29:01.451Z,92.37
2022-12-29T11:30:01.526Z,92.02
2022-12-29T11:31:01.425Z,92.84
2022-12-29T11:32:01.454Z,91.92
2022-12-29T11:33:01.435Z,92.13
2022-12-29T11:34:01.413Z,91.61
2022-12-29T11:35:01.411Z,92.13
2022-12-29T11:36:01.454Z,91.98
2022-12-29T11:37:01.368Z,91.47
2022-12-29T11:38:01.406Z,91.20
2022-12-29T11:39:01.424Z,91.16
2022-12-29T11:40:01.367Z,90.75
2022-12-29T11:41:01.408Z,91.27
2022-12-29T11:42:01.363Z,90.96
2022-12-29T11:43:01.322Z,91.27
2022-12-29T11:44:01.308Z,91.06
2022-12-29T11:45:05.079Z,90.86
2022-12-29T11:46:02.351Z,90.55
2022-12-29T11:47:01.282Z,90.66
2022-12-29T11:48:01.310Z,90.14
2022-12-29T11:49:01.281Z,89.53
2022-12-29T11:50:01.312Z,89.63
2022-12-29T11:51:01.327Z,89.79
2022-12-29T11:52:01.258Z,89.59
2022-12-29T11:53:01.243Z,89.49
2022-12-29T11:54:01.285Z,89.53
2022-12-29T11:55:01.253Z,88.92
2022-12-29T11:56:01.336Z,89.43
2022-12-29T11:57:01.213Z,88.71
2022-12-29T11:58:01.243Z,88.96
2022-12-29T11:59:01.195Z,87.94
2022-12-29T12:00:01.215Z,87.84
2022-12-29T12:01:01.187Z,88.45
2022-12-29T12:02:01.283Z,88.85
2022-12-29T12:03:01.207Z,89.78
2022-12-29T12:04:01.194Z,89.78
2022-12-29T12:05:01.158Z,88.96
2022-12-29T12:06:01.133Z,89.06
2022-12-29T12:07:01.178Z,89.58
2022-12-29T12:08:01.168Z,89.67
2022-12-29T12:09:01.134Z,89.88
2022-12-29T12:10:07.094Z,89.58
2022-12-29T12:11:03.110Z,89.31
2022-12-29T12:12:01.077Z,88.85
2022-12-29T12:13:01.111Z,88.24
2022-12-29T12:14:01.128Z,88.14
2022-12-29T12:15:01.108Z,88.45
2022-12-29T12:16:01.095Z,88.29
2022-12-29T12:17:01.127Z,88.55
2022-12-29T12:18:01.091Z,89.17
2022-12-29T12:19:01.109Z,89.00
2022-12-29T12:20:01.050Z,88.76
2022-12-29T12:21:01.039Z,89.51
2022-12-29T12:22:01.028Z,90.23
2022-12-29T12:23:00.986Z,89.51
2022-12-29T12:24:01.022Z,89.41
2022-12-29T12:25:01.006Z,88.65
2022-12-29T12:26:00.980Z,89.20
2022-12-29T12:27:01.020Z,89.47
2022-12-29T12:28:01.000Z,89.72
2022-12-29T12:29:00.962Z,89.51
2022-12-29T12:30:01.034Z,89.37
2022-12-29T12:31:01.028Z,89.61
2022-12-29T12:32:00.923Z,89.72
2022-12-29T12:33:00.954Z,89.72
2022-12-29T12:34:00.958Z,89.82
2022-12-29T12:35:00.915Z,90.23
2022-12-29T12:36:00.941Z,90.33
2022-12-29T12:37:00.918Z,90.12
2022-12-29T12:38:00.914Z,90.53
2022-12-29T12:39:00.895Z,90.33
2022-12-29T12:40:00.868Z,90.43
2022-12-29T12:41:00.889Z,90.08
2022-12-29T12:42:00.839Z,90.53
2022-12-29T12:43:00.837Z,90.02
2022-12-29T12:44:00.857Z,89.31
2022-12-29T12:45:00.867Z,90.08
2022-12-29T12:46:00.910Z,89.72
2022-12-29T12:47:00.826Z,89.98
2022-12-29T12:48:00.816Z,90.33
2022-12-29T12:49:00.811Z,90.23
2022-12-29T12:50:00.864Z,90.33
2022-12-29T12:51:00.802Z,90.29
2022-12-29T12:52:05.192Z,90.53
2022-12-29T12:53:01.813Z,90.33
2022-12-29T12:54:00.787Z,90.70
2022-12-29T12:55:00.767Z,89.58
2022-12-29T12:56:00.803Z,89.98
2022-12-29T12:57:01.753Z,90.19
2022-12-29T12:58:00.756Z,89.41
2022-12-29T12:59:05.677Z,90.02
2022-12-29T13:00:02.782Z,89.82
2022-12-29T13:01:00.718Z,88.90
2022-12-29T13:02:00.841Z,89.67
2022-12-29T13:03:02.800Z,89.67
2022-12-29T13:04:00.722Z,89.47
2022-12-29T13:05:00.697Z,88.55
2022-12-29T13:06:00.656Z,87.84
2022-12-29T13:07:00.695Z,88.65
2022-12-29T13:08:00.666Z,88.76